sensor_id;sensor_type;location;lat;lon;timestamp;P1;durP1;ratioP1;P2;durP2;ratioP2
8464;SDS011;72380;52.680;13.606;2024-03-02T00:00:15;25.17;;;12.50;;
8464;SDS011;72380;52.680;13.606;2024-03-02T00:02:47;18.97;;;9.93;;
8464;SDS011;72380;52.680;13.606;2024-03-02T00:05:15;28.57;;;11.50;;
8464;SDS011;72380;52.680;13.606;2024-03-02T00:07:42;24.10;;;11.33;;
8464;SDS011;72380;52.680;13.606;2024-03-02T00:10:10;27.43;;;12.50;;
8464;SDS011;72380;52.680;13.606;2024-03-02T00:12:38;24.60;;;11.20;;
8464;SDS011;72380;52.680;13.606;2024-03-02T00:15:06;30.00;;;12.33;;
8464;SDS011;72380;52.680;13.606;2024-03-02T00:17:33;26.87;;;12.53;;
8464;SDS011;72380;52.680;13.606;2024-03-02T00:20:02;32.30;;;11.13;;
8464;SDS011;72380;52.680;13.606;2024-03-02T00:22:30;19.77;;;10.47;;
8464;SDS011;72380;52.680;13.606;2024-03-02T00:24:57;21.00;;;10.93;;
8464;SDS011;72380;52.680;13.606;2024-03-02T00:27:25;25.10;;;11.07;;
8464;SDS011;72380;52.680;13.606;2024-03-02T00:29:52;20.93;;;11.13;;
8464;SDS011;72380;52.680;13.606;2024-03-02T00:32:19;23.50;;;12.00;;
8464;SDS011;72380;52.680;13.606;2024-03-02T00:34:47;23.93;;;11.13;;
8464;SDS011;72380;52.680;13.606;2024-03-02T00:37:15;24.07;;;11.03;;
8464;SDS011;72380;52.680;13.606;2024-03-02T00:39:43;23.20;;;11.23;;
8464;SDS011;72380;52.680;13.606;2024-03-02T00:42:10;23.80;;;10.33;;
8464;SDS011;72380;52.680;13.606;2024-03-02T00:44:39;24.70;;;10.97;;
8464;SDS011;72380;52.680;13.606;2024-03-02T00:47:06;19.70;;;11.03;;
8464;SDS011;72380;52.680;13.606;2024-03-02T00:49:34;22.60;;;10.97;;
8464;SDS011;72380;52.680;13.606;2024-03-02T00:52:01;21.13;;;10.63;;
8464;SDS011;72380;52.680;13.606;2024-03-02T00:54:30;22.07;;;10.43;;
8464;SDS011;72380;52.680;13.606;2024-03-02T00:56:57;23.13;;;11.57;;
8464;SDS011;72380;52.680;13.606;2024-03-02T00:59:25;25.63;;;11.23;;
8464;SDS011;72380;52.680;13.606;2024-03-02T01:01:52;31.70;;;13.20;;
8464;SDS011;72380;52.680;13.606;2024-03-02T01:04:19;27.10;;;12.90;;
8464;SDS011;72380;52.680;13.606;2024-03-02T01:06:47;27.63;;;11.43;;
8464;SDS011;72380;52.680;13.606;2024-03-02T01:09:14;26.33;;;12.67;;
8464;SDS011;72380;52.680;13.606;2024-03-02T01:11:44;23.80;;;12.07;;
8464;SDS011;72380;52.680;13.606;2024-03-02T01:14:14;24.37;;;11.83;;
8464;SDS011;72380;52.680;13.606;2024-03-02T01:16:41;27.70;;;11.53;;
8464;SDS011;72380;52.680;13.606;2024-03-02T01:19:09;26.80;;;11.97;;
8464;SDS011;72380;52.680;13.606;2024-03-02T01:21:36;24.97;;;13.37;;
8464;SDS011;72380;52.680;13.606;2024-03-02T01:24:04;26.97;;;12.73;;
8464;SDS011;72380;52.680;13.606;2024-03-02T01:26:31;24.33;;;13.33;;
8464;SDS011;72380;52.680;13.606;2024-03-02T01:28:59;24.10;;;12.80;;
8464;SDS011;72380;52.680;13.606;2024-03-02T01:31:27;25.30;;;14.30;;
8464;SDS011;72380;52.680;13.606;2024-03-02T01:33:54;22.13;;;12.17;;
8464;SDS011;72380;52.680;13.606;2024-03-02T01:36:21;28.47;;;13.90;;
8464;SDS011;72380;52.680;13.606;2024-03-02T01:38:49;30.00;;;14.60;;
8464;SDS011;72380;52.680;13.606;2024-03-02T01:41:16;27.57;;;13.90;;
8464;SDS011;72380;52.680;13.606;2024-03-02T01:43:43;24.80;;;13.47;;
8464;SDS011;72380;52.680;13.606;2024-03-02T01:46:12;26.93;;;13.03;;
8464;SDS011;72380;52.680;13.606;2024-03-02T01:48:39;28.20;;;12.33;;
8464;SDS011;72380;52.680;13.606;2024-03-02T01:51:06;23.20;;;11.87;;
8464;SDS011;72380;52.680;13.606;2024-03-02T01:53:34;28.20;;;12.80;;
8464;SDS011;72380;52.680;13.606;2024-03-02T01:56:01;21.90;;;11.40;;
8464;SDS011;72380;52.680;13.606;2024-03-02T01:58:29;30.37;;;12.93;;
8464;SDS011;72380;52.680;13.606;2024-03-02T02:00:56;29.53;;;14.30;;
8464;SDS011;72380;52.680;13.606;2024-03-02T02:03:25;24.17;;;12.83;;
8464;SDS011;72380;52.680;13.606;2024-03-02T02:05:52;26.50;;;12.40;;
8464;SDS011;72380;52.680;13.606;2024-03-02T02:08:19;33.27;;;12.87;;
8464;SDS011;72380;52.680;13.606;2024-03-02T02:10:46;26.87;;;12.13;;
8464;SDS011;72380;52.680;13.606;2024-03-02T02:13:14;24.63;;;11.73;;
8464;SDS011;72380;52.680;13.606;2024-03-02T02:15:41;23.23;;;11.40;;
8464;SDS011;72380;52.680;13.606;2024-03-02T02:18:09;26.70;;;12.23;;
8464;SDS011;72380;52.680;13.606;2024-03-02T02:20:37;25.73;;;11.70;;
8464;SDS011;72380;52.680;13.606;2024-03-02T02:23:06;29.40;;;13.23;;
8464;SDS011;72380;52.680;13.606;2024-03-02T02:25:35;24.90;;;11.50;;
8464;SDS011;72380;52.680;13.606;2024-03-02T02:28:02;27.60;;;13.27;;
8464;SDS011;72380;52.680;13.606;2024-03-02T02:30:30;26.43;;;12.23;;
8464;SDS011;72380;52.680;13.606;2024-03-02T02:32:58;24.40;;;12.30;;
8464;SDS011;72380;52.680;13.606;2024-03-02T02:35:26;25.20;;;12.90;;
8464;SDS011;72380;52.680;13.606;2024-03-02T02:37:55;32.63;;;13.10;;
8464;SDS011;72380;52.680;13.606;2024-03-02T02:40:25;30.23;;;12.70;;
8464;SDS011;72380;52.680;13.606;2024-03-02T02:42:54;30.37;;;14.17;;
8464;SDS011;72380;52.680;13.606;2024-03-02T02:45:22;25.80;;;12.60;;
8464;SDS011;72380;52.680;13.606;2024-03-02T02:47:49;30.83;;;13.67;;
8464;SDS011;72380;52.680;13.606;2024-03-02T02:50:16;33.50;;;15.70;;
8464;SDS011;72380;52.680;13.606;2024-03-02T02:52:44;29.23;;;13.60;;
8464;SDS011;72380;52.680;13.606;2024-03-02T02:55:11;28.73;;;13.37;;
8464;SDS011;72380;52.680;13.606;2024-03-02T02:57:40;34.43;;;16.90;;
8464;SDS011;72380;52.680;13.606;2024-03-02T03:00:09;43.17;;;16.53;;
8464;SDS011;72380;52.680;13.606;2024-03-02T03:02:39;29.70;;;14.80;;
8464;SDS011;72380;52.680;13.606;2024-03-02T03:05:08;29.30;;;14.30;;
8464;SDS011;72380;52.680;13.606;2024-03-02T03:07:35;34.23;;;15.67;;
8464;SDS011;72380;52.680;13.606;2024-03-02T03:10:03;37.87;;;16.93;;
8464;SDS011;72380;52.680;13.606;2024-03-02T03:12:31;33.73;;;15.27;;
8464;SDS011;72380;52.680;13.606;2024-03-02T03:15:00;35.87;;;16.07;;
8464;SDS011;72380;52.680;13.606;2024-03-02T03:17:28;34.10;;;16.67;;
8464;SDS011;72380;52.680;13.606;2024-03-02T03:19:55;43.67;;;17.10;;
8464;SDS011;72380;52.680;13.606;2024-03-02T03:22:23;35.63;;;16.63;;
8464;SDS011;72380;52.680;13.606;2024-03-02T03:24:50;37.40;;;17.30;;
8464;SDS011;72380;52.680;13.606;2024-03-02T03:27:17;39.57;;;16.93;;
8464;SDS011;72380;52.680;13.606;2024-03-02T03:29:45;37.90;;;17.97;;
8464;SDS011;72380;52.680;13.606;2024-03-02T03:32:13;32.13;;;15.30;;
8464;SDS011;72380;52.680;13.606;2024-03-02T03:34:42;42.83;;;17.40;;
8464;SDS011;72380;52.680;13.606;2024-03-02T03:37:09;35.00;;;16.60;;
8464;SDS011;72380;52.680;13.606;2024-03-02T03:39:36;30.73;;;16.03;;
8464;SDS011;72380;52.680;13.606;2024-03-02T03:42:04;30.10;;;14.83;;
8464;SDS011;72380;52.680;13.606;2024-03-02T03:44:31;28.20;;;13.87;;
8464;SDS011;72380;52.680;13.606;2024-03-02T03:46:59;33.23;;;15.03;;
8464;SDS011;72380;52.680;13.606;2024-03-02T03:49:29;29.97;;;14.90;;
8464;SDS011;72380;52.680;13.606;2024-03-02T03:51:56;44.87;;;16.90;;
8464;SDS011;72380;52.680;13.606;2024-03-02T03:54:23;35.50;;;16.40;;
8464;SDS011;72380;52.680;13.606;2024-03-02T03:56:51;29.87;;;14.20;;
8464;SDS011;72380;52.680;13.606;2024-03-02T03:59:18;33.53;;;13.80;;
8464;SDS011;72380;52.680;13.606;2024-03-02T04:01:45;36.50;;;16.33;;
8464;SDS011;72380;52.680;13.606;2024-03-02T04:04:13;28.73;;;15.00;;
8464;SDS011;72380;52.680;13.606;2024-03-02T04:06:41;28.57;;;15.53;;
8464;SDS011;72380;52.680;13.606;2024-03-02T04:09:09;28.67;;;14.47;;
8464;SDS011;72380;52.680;13.606;2024-03-02T04:11:37;36.60;;;15.23;;
8464;SDS011;72380;52.680;13.606;2024-03-02T04:14:04;29.27;;;14.70;;
8464;SDS011;72380;52.680;13.606;2024-03-02T04:16:32;28.30;;;14.23;;
8464;SDS011;72380;52.680;13.606;2024-03-02T04:18:59;33.63;;;15.70;;
8464;SDS011;72380;52.680;13.606;2024-03-02T04:21:27;25.70;;;12.70;;
8464;SDS011;72380;52.680;13.606;2024-03-02T04:23:55;31.97;;;14.10;;
8464;SDS011;72380;52.680;13.606;2024-03-02T04:26:24;24.27;;;13.67;;
8464;SDS011;72380;52.680;13.606;2024-03-02T04:28:51;25.33;;;13.47;;
8464;SDS011;72380;52.680;13.606;2024-03-02T04:31:19;20.50;;;11.90;;
8464;SDS011;72380;52.680;13.606;2024-03-02T04:33:46;27.40;;;13.57;;
8464;SDS011;72380;52.680;13.606;2024-03-02T04:36:14;24.47;;;12.20;;
8464;SDS011;72380;52.680;13.606;2024-03-02T04:38:41;22.50;;;12.67;;
8464;SDS011;72380;52.680;13.606;2024-03-02T04:41:10;34.77;;;13.93;;
8464;SDS011;72380;52.680;13.606;2024-03-02T04:43:37;21.73;;;12.93;;
8464;SDS011;72380;52.680;13.606;2024-03-02T04:46:04;23.63;;;12.73;;
8464;SDS011;72380;52.680;13.606;2024-03-02T04:48:32;22.10;;;12.97;;
8464;SDS011;72380;52.680;13.606;2024-03-02T04:50:59;28.07;;;13.83;;
8464;SDS011;72380;52.680;13.606;2024-03-02T04:53:27;27.70;;;13.23;;
8464;SDS011;72380;52.680;13.606;2024-03-02T04:55:54;26.87;;;13.97;;
8464;SDS011;72380;52.680;13.606;2024-03-02T04:58:47;31.80;;;14.07;;
8464;SDS011;72380;52.680;13.606;2024-03-02T05:01:14;23.77;;;13.50;;
8464;SDS011;72380;52.680;13.606;2024-03-02T05:03:42;22.20;;;12.43;;
8464;SDS011;72380;52.680;13.606;2024-03-02T05:06:10;24.53;;;12.93;;
8464;SDS011;72380;52.680;13.606;2024-03-02T05:08:37;22.87;;;12.47;;
8464;SDS011;72380;52.680;13.606;2024-03-02T05:11:05;28.23;;;12.87;;
8464;SDS011;72380;52.680;13.606;2024-03-02T05:13:51;24.20;;;12.70;;
8464;SDS011;72380;52.680;13.606;2024-03-02T05:16:19;23.87;;;12.73;;
8464;SDS011;72380;52.680;13.606;2024-03-02T05:18:46;27.27;;;13.10;;
8464;SDS011;72380;52.680;13.606;2024-03-02T05:21:13;26.80;;;13.33;;
8464;SDS011;72380;52.680;13.606;2024-03-02T05:23:40;26.13;;;12.47;;
8464;SDS011;72380;52.680;13.606;2024-03-02T05:26:08;24.67;;;11.60;;
8464;SDS011;72380;52.680;13.606;2024-03-02T05:28:38;25.37;;;13.13;;
8464;SDS011;72380;52.680;13.606;2024-03-02T05:31:06;21.40;;;12.30;;
8464;SDS011;72380;52.680;13.606;2024-03-02T05:33:33;22.93;;;11.40;;
8464;SDS011;72380;52.680;13.606;2024-03-02T05:36:01;25.60;;;12.50;;
8464;SDS011;72380;52.680;13.606;2024-03-02T05:38:28;28.27;;;12.77;;
8464;SDS011;72380;52.680;13.606;2024-03-02T05:40:55;24.10;;;11.80;;
8464;SDS011;72380;52.680;13.606;2024-03-02T05:43:23;19.47;;;10.20;;
8464;SDS011;72380;52.680;13.606;2024-03-02T05:45:50;23.60;;;11.73;;
8464;SDS011;72380;52.680;13.606;2024-03-02T05:48:19;21.70;;;12.57;;
8464;SDS011;72380;52.680;13.606;2024-03-02T05:50:46;21.37;;;11.47;;
8464;SDS011;72380;52.680;13.606;2024-03-02T05:53:14;19.77;;;10.93;;
8464;SDS011;72380;52.680;13.606;2024-03-02T05:55:41;23.67;;;11.93;;
8464;SDS011;72380;52.680;13.606;2024-03-02T05:58:10;22.00;;;12.17;;
8464;SDS011;72380;52.680;13.606;2024-03-02T06:00:51;23.30;;;10.83;;
8464;SDS011;72380;52.680;13.606;2024-03-02T06:03:21;21.23;;;10.30;;
8464;SDS011;72380;52.680;13.606;2024-03-02T06:05:48;25.33;;;13.27;;
8464;SDS011;72380;52.680;13.606;2024-03-02T06:08:16;23.20;;;12.00;;
8464;SDS011;72380;52.680;13.606;2024-03-02T06:10:43;27.73;;;12.83;;
8464;SDS011;72380;52.680;13.606;2024-03-02T06:13:11;22.47;;;12.37;;
8464;SDS011;72380;52.680;13.606;2024-03-02T06:15:38;27.23;;;12.97;;
8464;SDS011;72380;52.680;13.606;2024-03-02T06:18:05;26.83;;;13.10;;
8464;SDS011;72380;52.680;13.606;2024-03-02T06:20:34;28.63;;;13.80;;
8464;SDS011;72380;52.680;13.606;2024-03-02T06:23:02;22.97;;;12.77;;
8464;SDS011;72380;52.680;13.606;2024-03-02T06:25:29;21.50;;;11.57;;
8464;SDS011;72380;52.680;13.606;2024-03-02T06:27:57;27.70;;;13.27;;
8464;SDS011;72380;52.680;13.606;2024-03-02T06:30:24;28.27;;;13.27;;
8464;SDS011;72380;52.680;13.606;2024-03-02T06:32:52;23.57;;;12.67;;
8464;SDS011;72380;52.680;13.606;2024-03-02T06:35:19;28.00;;;13.33;;
8464;SDS011;72380;52.680;13.606;2024-03-02T06:37:48;28.93;;;13.27;;
8464;SDS011;72380;52.680;13.606;2024-03-02T06:40:16;27.30;;;13.93;;
8464;SDS011;72380;52.680;13.606;2024-03-02T06:42:44;27.87;;;13.50;;
8464;SDS011;72380;52.680;13.606;2024-03-02T06:45:11;28.70;;;13.87;;
8464;SDS011;72380;52.680;13.606;2024-03-02T06:47:38;28.93;;;12.77;;
8464;SDS011;72380;52.680;13.606;2024-03-02T06:50:06;31.57;;;13.77;;
8464;SDS011;72380;52.680;13.606;2024-03-02T06:52:34;28.67;;;13.13;;
8464;SDS011;72380;52.680;13.606;2024-03-02T06:55:03;28.07;;;13.03;;
8464;SDS011;72380;52.680;13.606;2024-03-02T06:57:30;28.37;;;12.60;;
8464;SDS011;72380;52.680;13.606;2024-03-02T06:59:58;28.70;;;14.70;;
8464;SDS011;72380;52.680;13.606;2024-03-02T07:02:25;26.90;;;14.00;;
8464;SDS011;72380;52.680;13.606;2024-03-02T07:04:53;39.67;;;14.60;;
8464;SDS011;72380;52.680;13.606;2024-03-02T07:07:20;32.47;;;13.87;;
8464;SDS011;72380;52.680;13.606;2024-03-02T07:09:47;32.20;;;13.57;;
8464;SDS011;72380;52.680;13.606;2024-03-02T07:12:15;27.87;;;13.07;;
8464;SDS011;72380;52.680;13.606;2024-03-02T07:14:45;30.33;;;14.33;;
8464;SDS011;72380;52.680;13.606;2024-03-02T07:17:36;30.40;;;14.63;;
8464;SDS011;72380;52.680;13.606;2024-03-02T07:20:04;28.07;;;14.17;;
8464;SDS011;72380;52.680;13.606;2024-03-02T07:22:32;33.60;;;13.40;;
8464;SDS011;72380;52.680;13.606;2024-03-02T07:24:59;27.67;;;14.63;;
8464;SDS011;72380;52.680;13.606;2024-03-02T07:27:29;32.57;;;13.47;;
8464;SDS011;72380;52.680;13.606;2024-03-02T07:29:59;28.40;;;14.70;;
8464;SDS011;72380;52.680;13.606;2024-03-02T07:32:26;32.07;;;14.17;;
8464;SDS011;72380;52.680;13.606;2024-03-02T07:34:53;33.43;;;14.37;;
8464;SDS011;72380;52.680;13.606;2024-03-02T07:37:21;31.57;;;15.10;;
8464;SDS011;72380;52.680;13.606;2024-03-02T07:39:48;28.63;;;15.23;;
8464;SDS011;72380;52.680;13.606;2024-03-02T07:42:15;32.57;;;15.70;;
8464;SDS011;72380;52.680;13.606;2024-03-02T07:44:44;36.00;;;15.80;;
8464;SDS011;72380;52.680;13.606;2024-03-02T07:47:12;26.40;;;14.33;;
8464;SDS011;72380;52.680;13.606;2024-03-02T07:49:39;32.97;;;15.87;;
8464;SDS011;72380;52.680;13.606;2024-03-02T07:52:07;28.17;;;13.93;;
8464;SDS011;72380;52.680;13.606;2024-03-02T07:54:34;35.73;;;14.57;;
8464;SDS011;72380;52.680;13.606;2024-03-02T07:57:01;38.37;;;15.43;;
8464;SDS011;72380;52.680;13.606;2024-03-02T07:59:29;33.83;;;15.23;;
8464;SDS011;72380;52.680;13.606;2024-03-02T08:01:57;26.93;;;13.27;;
8464;SDS011;72380;52.680;13.606;2024-03-02T08:04:26;41.03;;;16.30;;
8464;SDS011;72380;52.680;13.606;2024-03-02T08:06:53;28.50;;;14.60;;
8464;SDS011;72380;52.680;13.606;2024-03-02T08:09:21;28.60;;;16.47;;
8464;SDS011;72380;52.680;13.606;2024-03-02T08:11:48;39.70;;;14.30;;
8464;SDS011;72380;52.680;13.606;2024-03-02T08:14:15;25.40;;;13.70;;
8464;SDS011;72380;52.680;13.606;2024-03-02T08:16:42;31.80;;;14.50;;
8464;SDS011;72380;52.680;13.606;2024-03-02T08:19:11;29.40;;;14.43;;
8464;SDS011;72380;52.680;13.606;2024-03-02T08:21:38;28.33;;;14.10;;
8464;SDS011;72380;52.680;13.606;2024-03-02T08:24:06;28.83;;;14.97;;
8464;SDS011;72380;52.680;13.606;2024-03-02T08:26:33;29.17;;;15.00;;
8464;SDS011;72380;52.680;13.606;2024-03-02T08:29:01;34.27;;;15.70;;
8464;SDS011;72380;52.680;13.606;2024-03-02T08:31:28;31.60;;;14.60;;
8464;SDS011;72380;52.680;13.606;2024-03-02T08:33:56;33.27;;;13.50;;
8464;SDS011;72380;52.680;13.606;2024-03-02T08:36:25;28.63;;;14.30;;
8464;SDS011;72380;52.680;13.606;2024-03-02T08:38:52;30.13;;;14.60;;
8464;SDS011;72380;52.680;13.606;2024-03-02T08:41:20;28.27;;;14.37;;
8464;SDS011;72380;52.680;13.606;2024-03-02T08:43:47;37.03;;;13.17;;
8464;SDS011;72380;52.680;13.606;2024-03-02T08:46:14;37.73;;;13.90;;
8464;SDS011;72380;52.680;13.606;2024-03-02T08:48:42;27.37;;;15.33;;
8464;SDS011;72380;52.680;13.606;2024-03-02T08:51:09;32.77;;;14.43;;
8464;SDS011;72380;52.680;13.606;2024-03-02T08:53:37;29.57;;;15.00;;
8464;SDS011;72380;52.680;13.606;2024-03-02T08:56:05;30.27;;;15.50;;
8464;SDS011;72380;52.680;13.606;2024-03-02T08:58:32;27.90;;;14.33;;
8464;SDS011;72380;52.680;13.606;2024-03-02T09:01:00;28.97;;;13.80;;
8464;SDS011;72380;52.680;13.606;2024-03-02T09:03:27;31.63;;;14.87;;
8464;SDS011;72380;52.680;13.606;2024-03-02T09:05:54;33.03;;;14.33;;
8464;SDS011;72380;52.680;13.606;2024-03-02T09:08:23;32.30;;;14.20;;
8464;SDS011;72380;52.680;13.606;2024-03-02T09:10:51;30.17;;;13.10;;
8464;SDS011;72380;52.680;13.606;2024-03-02T09:13:19;27.40;;;14.40;;
8464;SDS011;72380;52.680;13.606;2024-03-02T09:15:46;26.00;;;12.80;;
8464;SDS011;72380;52.680;13.606;2024-03-02T09:18:13;29.53;;;14.07;;
8464;SDS011;72380;52.680;13.606;2024-03-02T09:20:41;32.97;;;14.13;;
8464;SDS011;72380;52.680;13.606;2024-03-02T09:23:08;32.00;;;15.13;;
8464;SDS011;72380;52.680;13.606;2024-03-02T09:25:35;31.40;;;13.63;;
8464;SDS011;72380;52.680;13.606;2024-03-02T09:28:04;39.37;;;15.07;;
8464;SDS011;72380;52.680;13.606;2024-03-02T09:30:32;32.77;;;14.17;;
8464;SDS011;72380;52.680;13.606;2024-03-02T09:32:59;37.43;;;16.57;;
8464;SDS011;72380;52.680;13.606;2024-03-02T09:35:27;30.77;;;13.07;;
8464;SDS011;72380;52.680;13.606;2024-03-02T09:37:55;30.80;;;14.53;;
8464;SDS011;72380;52.680;13.606;2024-03-02T09:40:22;30.87;;;13.73;;
8464;SDS011;72380;52.680;13.606;2024-03-02T09:42:50;28.07;;;14.27;;
8464;SDS011;72380;52.680;13.606;2024-03-02T09:45:22;27.00;;;13.60;;
8464;SDS011;72380;52.680;13.606;2024-03-02T09:47:49;28.67;;;13.40;;
8464;SDS011;72380;52.680;13.606;2024-03-02T09:50:17;34.97;;;14.57;;
8464;SDS011;72380;52.680;13.606;2024-03-02T09:52:44;25.37;;;14.23;;
8464;SDS011;72380;52.680;13.606;2024-03-02T09:55:15;28.93;;;13.70;;
8464;SDS011;72380;52.680;13.606;2024-03-02T09:57:42;23.73;;;12.77;;
8464;SDS011;72380;52.680;13.606;2024-03-02T10:00:10;36.67;;;14.13;;
8464;SDS011;72380;52.680;13.606;2024-03-02T10:02:41;30.67;;;14.00;;
8464;SDS011;72380;52.680;13.606;2024-03-02T10:05:08;36.13;;;14.63;;
8464;SDS011;72380;52.680;13.606;2024-03-02T10:07:37;33.37;;;14.60;;
8464;SDS011;72380;52.680;13.606;2024-03-02T10:10:13;32.07;;;14.47;;
8464;SDS011;72380;52.680;13.606;2024-03-02T10:12:41;30.53;;;12.73;;
8464;SDS011;72380;52.680;13.606;2024-03-02T10:15:08;30.90;;;15.10;;
8464;SDS011;72380;52.680;13.606;2024-03-02T10:17:36;36.77;;;14.33;;
8464;SDS011;72380;52.680;13.606;2024-03-02T10:22:47;27.37;;;13.57;;
8464;SDS011;72380;52.680;13.606;2024-03-02T10:25:27;26.97;;;12.37;;
8464;SDS011;72380;52.680;13.606;2024-03-02T10:27:56;26.30;;;12.23;;
8464;SDS011;72380;52.680;13.606;2024-03-02T10:30:24;25.80;;;12.07;;
8464;SDS011;72380;52.680;13.606;2024-03-02T10:32:52;23.67;;;12.30;;
8464;SDS011;72380;52.680;13.606;2024-03-02T10:35:20;20.50;;;10.40;;
8464;SDS011;72380;52.680;13.606;2024-03-02T10:37:49;22.47;;;10.60;;
8464;SDS011;72380;52.680;13.606;2024-03-02T10:40:17;22.37;;;10.40;;
8464;SDS011;72380;52.680;13.606;2024-03-02T10:42:45;17.70;;;10.90;;
8464;SDS011;72380;52.680;13.606;2024-03-02T10:45:12;21.57;;;10.57;;
8464;SDS011;72380;52.680;13.606;2024-03-02T10:47:42;16.70;;;9.40;;
8464;SDS011;72380;52.680;13.606;2024-03-02T10:50:10;24.30;;;11.57;;
8464;SDS011;72380;52.680;13.606;2024-03-02T10:52:36;18.77;;;9.23;;
8464;SDS011;72380;52.680;13.606;2024-03-02T10:55:06;18.13;;;9.07;;
8464;SDS011;72380;52.680;13.606;2024-03-02T10:57:38;22.00;;;8.47;;
8464;SDS011;72380;52.680;13.606;2024-03-02T11:00:08;17.93;;;8.53;;
8464;SDS011;72380;52.680;13.606;2024-03-02T11:02:41;16.80;;;8.33;;
8464;SDS011;72380;52.680;13.606;2024-03-02T11:05:09;15.70;;;8.97;;
8464;SDS011;72380;52.680;13.606;2024-03-02T11:07:38;18.57;;;9.13;;
8464;SDS011;72380;52.680;13.606;2024-03-02T11:10:07;21.40;;;8.97;;
8464;SDS011;72380;52.680;13.606;2024-03-02T11:12:36;17.90;;;10.40;;
8464;SDS011;72380;52.680;13.606;2024-03-02T11:15:03;17.47;;;8.60;;
8464;SDS011;72380;52.680;13.606;2024-03-02T11:17:31;19.77;;;9.43;;
8464;SDS011;72380;52.680;13.606;2024-03-02T11:19:59;14.20;;;8.93;;
8464;SDS011;72380;52.680;13.606;2024-03-02T11:22:26;16.37;;;8.00;;
8464;SDS011;72380;52.680;13.606;2024-03-02T11:24:54;16.13;;;8.10;;
8464;SDS011;72380;52.680;13.606;2024-03-02T11:30:09;16.83;;;8.63;;
8464;SDS011;72380;52.680;13.606;2024-03-02T11:32:36;14.13;;;8.47;;
8464;SDS011;72380;52.680;13.606;2024-03-02T11:35:04;17.93;;;8.80;;
8464;SDS011;72380;52.680;13.606;2024-03-02T11:37:32;15.30;;;8.40;;
8464;SDS011;72380;52.680;13.606;2024-03-02T11:40:00;16.17;;;7.90;;
8464;SDS011;72380;52.680;13.606;2024-03-02T11:42:27;19.40;;;8.60;;
8464;SDS011;72380;52.680;13.606;2024-03-02T11:44:55;14.27;;;7.70;;
8464;SDS011;72380;52.680;13.606;2024-03-02T11:47:24;15.03;;;8.00;;
8464;SDS011;72380;52.680;13.606;2024-03-02T11:49:58;14.10;;;7.40;;
8464;SDS011;72380;52.680;13.606;2024-03-02T11:52:25;18.53;;;9.00;;
8464;SDS011;72380;52.680;13.606;2024-03-02T11:54:55;11.37;;;6.43;;
8464;SDS011;72380;52.680;13.606;2024-03-02T11:57:23;11.40;;;6.80;;
8464;SDS011;72380;52.680;13.606;2024-03-02T11:59:52;11.23;;;7.60;;
8464;SDS011;72380;52.680;13.606;2024-03-02T12:02:21;13.83;;;7.93;;
8464;SDS011;72380;52.680;13.606;2024-03-02T12:04:51;13.53;;;7.70;;
8464;SDS011;72380;52.680;13.606;2024-03-02T12:07:18;17.40;;;8.67;;
8464;SDS011;72380;52.680;13.606;2024-03-02T12:09:47;14.47;;;6.67;;
8464;SDS011;72380;52.680;13.606;2024-03-02T12:12:14;13.67;;;8.47;;
8464;SDS011;72380;52.680;13.606;2024-03-02T12:14:49;13.67;;;7.07;;
8464;SDS011;72380;52.680;13.606;2024-03-02T12:17:17;16.03;;;7.97;;
8464;SDS011;72380;52.680;13.606;2024-03-02T12:19:44;14.90;;;8.10;;
8464;SDS011;72380;52.680;13.606;2024-03-02T12:22:13;13.93;;;7.53;;
8464;SDS011;72380;52.680;13.606;2024-03-02T12:24:41;13.43;;;8.40;;
8464;SDS011;72380;52.680;13.606;2024-03-02T12:27:10;16.10;;;8.50;;
8464;SDS011;72380;52.680;13.606;2024-03-02T12:29:38;12.30;;;8.70;;
8464;SDS011;72380;52.680;13.606;2024-03-02T12:32:06;18.37;;;7.73;;
8464;SDS011;72380;52.680;13.606;2024-03-02T12:34:33;16.63;;;8.13;;
8464;SDS011;72380;52.680;13.606;2024-03-02T12:37:01;12.00;;;6.90;;
8464;SDS011;72380;52.680;13.606;2024-03-02T12:39:30;12.07;;;7.13;;
8464;SDS011;72380;52.680;13.606;2024-03-02T12:41:58;10.70;;;6.90;;
8464;SDS011;72380;52.680;13.606;2024-03-02T12:44:25;14.27;;;8.33;;
8464;SDS011;72380;52.680;13.606;2024-03-02T12:46:52;11.37;;;7.87;;
8464;SDS011;72380;52.680;13.606;2024-03-02T12:49:21;13.33;;;7.47;;
8464;SDS011;72380;52.680;13.606;2024-03-02T12:51:49;16.73;;;7.53;;
8464;SDS011;72380;52.680;13.606;2024-03-02T12:54:21;12.23;;;7.57;;
8464;SDS011;72380;52.680;13.606;2024-03-02T12:56:51;13.07;;;7.87;;
8464;SDS011;72380;52.680;13.606;2024-03-02T12:59:21;18.47;;;7.70;;
8464;SDS011;72380;52.680;13.606;2024-03-02T13:01:52;13.87;;;7.70;;
8464;SDS011;72380;52.680;13.606;2024-03-02T13:04:22;12.70;;;6.97;;
8464;SDS011;72380;52.680;13.606;2024-03-02T13:06:50;14.60;;;7.93;;
8464;SDS011;72380;52.680;13.606;2024-03-02T13:09:17;12.00;;;7.03;;
8464;SDS011;72380;52.680;13.606;2024-03-02T13:11:45;14.53;;;6.80;;
8464;SDS011;72380;52.680;13.606;2024-03-02T13:14:14;13.07;;;6.47;;
8464;SDS011;72380;52.680;13.606;2024-03-02T13:16:42;13.80;;;6.73;;
8464;SDS011;72380;52.680;13.606;2024-03-02T13:19:09;11.07;;;6.83;;
8464;SDS011;72380;52.680;13.606;2024-03-02T13:21:37;13.73;;;7.13;;
8464;SDS011;72380;52.680;13.606;2024-03-02T13:24:05;13.73;;;7.80;;
8464;SDS011;72380;52.680;13.606;2024-03-02T13:26:32;12.30;;;6.93;;
8464;SDS011;72380;52.680;13.606;2024-03-02T13:28:59;13.37;;;6.87;;
8464;SDS011;72380;52.680;13.606;2024-03-02T13:31:28;12.40;;;7.67;;
8464;SDS011;72380;52.680;13.606;2024-03-02T13:33:55;15.50;;;7.17;;
8464;SDS011;72380;52.680;13.606;2024-03-02T13:36:23;13.37;;;7.67;;
8464;SDS011;72380;52.680;13.606;2024-03-02T13:38:50;12.73;;;7.03;;
8464;SDS011;72380;52.680;13.606;2024-03-02T13:41:17;12.83;;;6.63;;
8464;SDS011;72380;52.680;13.606;2024-03-02T13:43:45;11.93;;;7.03;;
8464;SDS011;72380;52.680;13.606;2024-03-02T13:46:13;11.10;;;6.70;;
8464;SDS011;72380;52.680;13.606;2024-03-02T13:48:41;12.23;;;6.63;;
8464;SDS011;72380;52.680;13.606;2024-03-02T13:51:09;13.43;;;7.00;;
8464;SDS011;72380;52.680;13.606;2024-03-02T13:53:36;12.80;;;7.23;;
8464;SDS011;72380;52.680;13.606;2024-03-02T13:56:04;9.93;;;6.47;;
8464;SDS011;72380;52.680;13.606;2024-03-02T13:58:31;12.33;;;6.17;;
8464;SDS011;72380;52.680;13.606;2024-03-02T14:00:59;9.07;;;5.90;;
8464;SDS011;72380;52.680;13.606;2024-03-02T14:03:26;11.40;;;6.67;;
8464;SDS011;72380;52.680;13.606;2024-03-02T14:05:55;10.80;;;5.37;;
8464;SDS011;72380;52.680;13.606;2024-03-02T14:08:22;11.33;;;6.87;;
8464;SDS011;72380;52.680;13.606;2024-03-02T14:10:50;9.80;;;6.10;;
8464;SDS011;72380;52.680;13.606;2024-03-02T14:13:17;12.90;;;7.07;;
8464;SDS011;72380;52.680;13.606;2024-03-02T14:15:53;10.83;;;6.80;;
8464;SDS011;72380;52.680;13.606;2024-03-02T14:18:20;11.47;;;6.80;;
8464;SDS011;72380;52.680;13.606;2024-03-02T14:20:48;16.47;;;7.17;;
8464;SDS011;72380;52.680;13.606;2024-03-02T14:23:19;15.63;;;7.20;;
8464;SDS011;72380;52.680;13.606;2024-03-02T14:25:46;10.03;;;6.07;;
8464;SDS011;72380;52.680;13.606;2024-03-02T14:28:14;8.83;;;5.93;;
8464;SDS011;72380;52.680;13.606;2024-03-02T14:30:41;10.47;;;5.50;;
8464;SDS011;72380;52.680;13.606;2024-03-02T14:33:09;13.30;;;6.53;;
8464;SDS011;72380;52.680;13.606;2024-03-02T14:35:36;10.37;;;6.27;;